createdAt,value
2018-09-29T00:03:30.689Z,99.90
2018-09-29T00:08:14.399Z,99.90
2018-09-29T00:12:58.437Z,99.90
2018-09-29T00:17:42.636Z,99.90
2018-09-29T00:22:26.590Z,99.90
2018-09-29T00:27:10.246Z,99.90
2018-09-29T00:31:54.118Z,99.90
2018-09-29T00:36:37.924Z,99.90
2018-09-29T00:41:21.766Z,99.90
2018-09-29T00:46:05.505Z,99.90
2018-09-29T00:50:49.546Z,99.90
2018-09-29T00:55:33.270Z,99.90
2018-09-29T01:00:17.148Z,99.90
2018-09-29T01:05:01.897Z,99.90
2018-09-29T01:09:46.232Z,99.90
2018-09-29T01:14:30.194Z,99.90
2018-09-29T01:19:13.950Z,99.90
2018-09-29T01:23:57.806Z,99.90
2018-09-29T01:28:41.503Z,99.90
2018-09-29T01:33:25.251Z,99.90
2018-09-29T01:38:08.933Z,99.90
2018-09-29T01:42:52.745Z,99.90
2018-09-29T01:47:36.554Z,99.90
2018-09-29T01:52:22.012Z,99.90
2018-09-29T01:57:05.779Z,99.90
2018-09-29T02:01:50.201Z,99.90
2018-09-29T02:06:35.163Z,99.90
2018-09-29T02:11:18.990Z,99.90
2018-09-29T02:16:02.690Z,99.90
2018-09-29T02:20:46.474Z,99.90
2018-09-29T02:25:30.336Z,99.90
2018-09-29T02:30:14.303Z,99.90
2018-09-29T02:34:58.064Z,99.90
2018-09-29T02:39:41.927Z,99.90
2018-09-29T02:44:25.857Z,99.90
2018-09-29T02:49:10.267Z,99.90
2018-09-29T02:53:54.344Z,99.90
2018-09-29T02:58:38.135Z,99.90
2018-09-29T03:03:22.606Z,99.90
2018-09-29T03:08:06.303Z,99.90
2018-09-29T03:12:50.069Z,99.90
2018-09-29T03:17:33.789Z,99.90
2018-09-29T03:22:17.710Z,99.90
2018-09-29T03:27:01.363Z,99.90
2018-09-29T03:31:45.321Z,99.90
2018-09-29T03:36:28.987Z,99.90
2018-09-29T03:41:12.868Z,99.90
2018-09-29T03:45:56.622Z,99.90
2018-09-29T03:50:40.557Z,99.90
2018-09-29T03:55:24.464Z,99.90
2018-09-29T04:00:08.715Z,99.90
2018-09-29T04:04:52.680Z,99.90
2018-09-29T04:09:36.483Z,99.90
2018-09-29T04:14:20.260Z,99.90
2018-09-29T04:19:04.443Z,99.90
2018-09-29T04:23:48.184Z,99.90
2018-09-29T04:28:32.007Z,99.90
2018-09-29T04:33:16.789Z,99.90
2018-09-29T04:38:00.746Z,99.90
2018-09-29T04:42:44.704Z,99.90
2018-09-29T04:47:28.597Z,99.90
2018-09-29T04:52:12.347Z,99.90
2018-09-29T04:56:56.103Z,99.90
2018-09-29T05:01:39.811Z,99.90
2018-09-29T05:06:24.059Z,99.90
2018-09-29T05:11:07.778Z,99.90
2018-09-29T05:15:53.596Z,99.90
2018-09-29T05:20:37.565Z,99.90
2018-09-29T05:25:23.477Z,99.90
2018-09-29T05:30:10.873Z,99.90
2018-09-29T05:35:00.265Z,99.90
2018-09-29T05:39:45.100Z,99.90
2018-09-29T05:44:42.624Z,99.90
2018-09-29T05:49:39.971Z,99.90
2018-09-29T05:54:49.256Z,99.90
2018-09-29T05:59:33.267Z,99.90
2018-09-29T06:04:27.694Z,99.90
2018-09-29T06:09:11.715Z,99.90
2018-09-29T06:14:10.209Z,99.90
2018-09-29T06:18:57.780Z,99.90
2018-09-29T06:23:41.824Z,99.90
2018-09-29T06:28:27.445Z,99.90
2018-09-29T06:33:41.342Z,99.90
2018-09-29T06:38:26.392Z,99.90
2018-09-29T06:48:22.219Z,99.90
2018-09-29T06:53:47.193Z,99.90
2018-09-29T06:58:34.052Z,99.90
2018-09-29T07:08:17.531Z,99.90
2018-09-29T07:13:05.739Z,99.90
2018-09-29T07:17:51.567Z,99.90
2018-09-29T07:22:35.529Z,99.90
2018-09-29T07:27:20.492Z,99.90
2018-09-29T07:32:05.336Z,99.90
2018-09-29T07:36:49.128Z,99.90
2018-09-29T07:41:32.886Z,99.90
2018-09-29T07:46:16.750Z,99.90
2018-09-29T07:51:02.664Z,99.90
2018-09-29T07:55:46.754Z,99.90
2018-09-29T08:00:30.549Z,99.90
2018-09-29T08:05:14.520Z,99.90
2018-09-29T08:09:58.392Z,99.90
2018-09-29T08:14:42.290Z,99.90
2018-09-29T08:19:30.492Z,99.90
2018-09-29T08:24:15.704Z,99.90
2018-09-29T08:28:59.643Z,99.90
2018-09-29T08:33:44.022Z,99.90
2018-09-29T08:38:28.173Z,99.90
2018-09-29T08:43:12.839Z,99.90
2018-09-29T08:47:58.759Z,99.90
2018-09-29T08:52:46.782Z,99.90
2018-09-29T08:57:30.605Z,99.90
2018-09-29T09:02:14.948Z,99.90
2018-09-29T09:06:59.210Z,99.90
2018-09-29T09:11:43.662Z,99.90
2018-09-29T09:16:28.874Z,99.90
2018-09-29T09:21:12.817Z,99.90
2018-09-29T09:25:56.547Z,99.90
2018-09-29T09:30:41.948Z,99.90
2018-09-29T09:35:26.272Z,99.90
2018-09-29T09:40:11.160Z,99.90
2018-09-29T09:44:54.989Z,99.90
2018-09-29T09:49:38.826Z,99.90
2018-09-29T09:54:22.565Z,99.90
2018-09-29T09:59:06.461Z,99.90
2018-09-29T10:03:50.295Z,99.90
2018-09-29T10:08:34.135Z,99.90
2018-09-29T10:13:18.683Z,99.90
2018-09-29T10:18:02.378Z,99.90
2018-09-29T10:22:46.220Z,99.90
2018-09-29T10:27:29.950Z,99.90
2018-09-29T10:32:13.668Z,98.70
2018-09-29T10:36:57.586Z,98.30
2018-09-29T10:41:41.933Z,98.10
2018-09-29T10:46:25.676Z,95.20
2018-09-29T10:51:09.572Z,92.50
2018-09-29T10:55:53.310Z,93.70
2018-09-29T11:00:37.320Z,95.00
2018-09-29T11:05:21.215Z,93.50
2018-09-29T11:10:05.040Z,91.70
2018-09-29T11:14:48.910Z,93.40
2018-09-29T11:19:32.845Z,92.20
2018-09-29T11:24:16.574Z,91.30
2018-09-29T11:29:00.317Z,91.70
2018-09-29T11:33:44.176Z,94.60
2018-09-29T11:38:27.839Z,92.90
2018-09-29T11:43:11.665Z,90.50
2018-09-29T11:47:55.465Z,82.80
2018-09-29T11:52:39.248Z,83.90
2018-09-29T11:57:23.080Z,81.90
2018-09-29T12:02:07.118Z,83.20
2018-09-29T12:06:51.925Z,85.60
2018-09-29T12:11:35.802Z,84.00
2018-09-29T12:16:19.599Z,82.50
2018-09-29T12:21:03.296Z,79.60
2018-09-29T12:25:47.762Z,79.00
2018-09-29T12:30:31.600Z,76.00
2018-09-29T12:35:15.412Z,76.80
2018-09-29T12:39:59.134Z,79.60
2018-09-29T12:44:42.987Z,78.60
2018-09-29T12:49:28.971Z,78.80
2018-09-29T12:54:13.425Z,75.30
2018-09-29T12:58:58.706Z,75.50
2018-09-29T13:03:42.935Z,72.40
2018-09-29T13:08:27.389Z,76.00
2018-09-29T13:13:11.122Z,72.60
2018-09-29T13:17:54.903Z,74.60
2018-09-29T13:22:38.664Z,76.50
2018-09-29T13:27:22.519Z,75.00
2018-09-29T13:32:06.419Z,73.50
2018-09-29T13:36:50.289Z,73.40
2018-09-29T13:41:34.082Z,74.50
2018-09-29T13:46:18.184Z,79.30
2018-09-29T13:51:04.301Z,77.80
2018-09-29T13:55:48.190Z,76.60
2018-09-29T14:00:32.696Z,76.20
2018-09-29T14:05:16.668Z,73.20
2018-09-29T14:10:01.371Z,72.60
2018-09-29T14:14:45.755Z,72.00
2018-09-29T14:19:29.852Z,72.70
2018-09-29T14:24:14.916Z,72.90
2018-09-29T14:28:58.821Z,72.20
2018-09-29T14:33:42.753Z,72.60
2018-09-29T14:38:27.483Z,72.80
2018-09-29T14:43:11.506Z,74.50
2018-09-29T14:47:55.223Z,73.90
2018-09-29T14:52:39.073Z,74.00
2018-09-29T14:57:22.864Z,73.60
2018-09-29T15:02:06.854Z,72.50
2018-09-29T15:06:50.681Z,71.90
2018-09-29T15:11:34.299Z,75.10
2018-09-29T15:16:18.059Z,73.50
2018-09-29T15:21:01.924Z,74.10
2018-09-29T15:25:45.746Z,76.20
2018-09-29T15:30:29.709Z,73.40
2018-09-29T15:35:13.442Z,76.10
2018-09-29T15:39:57.358Z,76.70
2018-09-29T15:44:41.194Z,76.60
2018-09-29T15:49:24.978Z,80.30
2018-09-29T15:54:08.776Z,81.90
2018-09-29T15:58:52.600Z,83.80
2018-09-29T16:03:36.392Z,87.60
2018-09-29T16:08:20.476Z,87.40
2018-09-29T16:13:04.215Z,88.10
2018-09-29T16:17:48.089Z,89.90
2018-09-29T16:22:31.817Z,90.30
2018-09-29T16:27:15.742Z,91.60
2018-09-29T16:31:59.755Z,93.70
2018-09-29T16:36:43.554Z,95.30
2018-09-29T16:41:27.360Z,96.60
2018-09-29T16:46:11.215Z,98.00
2018-09-29T16:50:54.933Z,99.40
2018-09-29T16:55:38.737Z,99.90
2018-09-29T17:00:22.705Z,99.90
2018-09-29T17:05:06.639Z,99.90
2018-09-29T17:09:50.501Z,99.90
2018-09-29T17:14:34.340Z,99.90
2018-09-29T17:19:18.354Z,99.90
2018-09-29T17:24:02.560Z,99.90
2018-09-29T17:28:46.472Z,99.90
2018-09-29T17:33:35.884Z,99.90
2018-09-29T17:38:24.041Z,99.90
2018-09-29T17:43:08.168Z,99.90
2018-09-29T17:47:51.947Z,99.90
2018-09-29T17:52:36.701Z,99.90
2018-09-29T17:57:20.839Z,99.90
2018-09-29T18:02:06.140Z,99.90
2018-09-29T18:06:51.122Z,99.90
2018-09-29T18:11:35.941Z,99.90
2018-09-29T18:16:19.895Z,99.90
2018-09-29T18:21:09.329Z,99.90
2018-09-29T18:26:02.466Z,99.90
2018-09-29T18:30:53.531Z,99.90
2018-09-29T18:40:34.389Z,99.90
2018-09-29T18:45:19.727Z,99.90
2018-09-29T18:50:05.302Z,99.90
2018-09-29T18:54:49.210Z,99.90
2018-09-29T18:59:33.102Z,99.90
2018-09-29T19:04:17.108Z,99.90
2018-09-29T19:09:01.542Z,99.90
2018-09-29T19:13:46.999Z,99.90
2018-09-29T19:18:33.199Z,99.90
2018-09-29T19:23:18.256Z,99.90
2018-09-29T19:28:03.464Z,99.90
2018-09-29T19:32:49.552Z,99.90
2018-09-29T19:37:35.556Z,99.90
2018-09-29T19:42:19.682Z,99.90
2018-09-29T19:47:03.750Z,99.90
2018-09-29T19:51:48.217Z,99.90
2018-09-29T19:56:32.821Z,99.90
2018-09-29T20:01:17.259Z,99.90
2018-09-29T20:06:01.323Z,99.90
2018-09-29T20:10:45.354Z,99.90
2018-09-29T20:15:29.832Z,99.90
2018-09-29T20:20:13.590Z,99.90
2018-09-29T20:24:58.478Z,99.90
2018-09-29T20:29:42.400Z,99.90
2018-09-29T20:34:26.303Z,99.90
2018-09-29T20:39:13.160Z,99.90
2018-09-29T20:43:57.619Z,99.90
2018-09-29T20:48:41.502Z,99.90
2018-09-29T20:53:25.710Z,99.90
2018-09-29T20:58:09.474Z,99.90
2018-09-29T21:02:53.264Z,99.90
2018-09-29T21:07:37.003Z,99.90
2018-09-29T21:12:20.802Z,99.90
2018-09-29T21:17:04.676Z,99.90
2018-09-29T21:21:48.428Z,99.90
2018-09-29T21:26:32.237Z,99.90
2018-09-29T21:31:16.048Z,99.90
2018-09-29T21:35:59.745Z,99.90
2018-09-29T21:40:44.521Z,99.90
2018-09-29T21:45:28.906Z,99.90
2018-09-29T21:50:13.058Z,99.90
2018-09-29T21:54:58.111Z,99.90
2018-09-29T21:59:41.919Z,99.90
2018-09-29T22:04:27.815Z,99.90
2018-09-29T22:09:14.892Z,99.90
2018-09-29T22:13:58.629Z,99.90
2018-09-29T22:18:42.473Z,99.90
2018-09-29T22:23:26.283Z,99.90
2018-09-29T22:28:10.268Z,99.90
2018-09-29T22:32:54.272Z,99.90
2018-09-29T22:37:38.090Z,99.90
2018-09-29T22:42:21.873Z,99.90
2018-09-29T22:47:06.243Z,99.90
2018-09-29T22:51:50.008Z,99.90
2018-09-29T22:56:33.764Z,99.90
2018-09-29T23:01:17.787Z,99.90
2018-09-29T23:06:01.521Z,99.90
2018-09-29T23:10:45.414Z,99.90
2018-09-29T23:15:29.378Z,99.90
2018-09-29T23:20:13.264Z,99.90
2018-09-29T23:24:57.203Z,99.90
2018-09-29T23:29:42.133Z,99.90
2018-09-29T23:34:25.944Z,99.90
2018-09-29T23:39:10.477Z,99.90
2018-09-29T23:43:54.324Z,99.90
2018-09-29T23:48:38.116Z,99.90
2018-09-29T23:53:21.910Z,99.90
2018-09-29T23:58:06.158Z,99.90
